Time;durP1;ratioP1;P1;durP2;ratioP2;P2;SDS_P1;SDS_P2;PMS_P1;PMS_P2;Temp;Humidity;BMP_temperature;BMP_pressure;BME280_temperature;BME280_humidity;BME280_pressure;Samples;Min_cycle;Max_cycle;Signal;HPM_P1;HPM_P2
2021/09/19 16:48:54;;;;;;;15.40;2.08;;;;;;;;;;1045947;27;100126;-55
2021/09/19 16:49:26;;;;;;;6.60;1.80;;;;;;;;;;1043864;27;100435;-53
2021/09/19 16:49:58;;;;;;;6.25;1.95;;;;;;;;;;1044944;27;99904;-54
2021/09/19 16:50:29;;;;;;;8.32;1.73;;;;;;;;;;1044012;27;100482;-53
2021/09/19 16:51:00;;;;;;;4.97;1.70;;;;;;;;;;1044706;27;100098;-54
2021/09/19 16:51:31;;;;;;;9.45;1.60;;;;;;;;;;1043685;27;100375;-53
2021/09/19 16:52:02;;;;;;;8.50;1.92;;;;;;;;;;1044857;27;99886;-54
2021/09/19 16:52:34;;;;;;;8.50;1.58;;;;;;;;;;1043420;27;100447;-53
2021/09/19 16:53:05;;;;;;;4.63;1.98;;;;;;;;;;1044700;27;100248;-54
2021/09/19 16:53:36;;;;;;;10.35;1.90;;;;;;;;;;1043686;27;100558;-54
2021/09/19 16:54:07;;;;;;;10.43;2.08;;;;;;;;;;1044907;27;99848;-53
2021/09/19 16:54:38;;;;;;;4.85;1.70;;;;;;;;;;1043440;27;100893;-55
2021/09/19 16:55:10;;;;;;;6.05;2.10;;;;;;;;;;1044798;27;100119;-55
2021/09/19 16:55:42;;;;;;;8.65;2.13;;;;;;;;;;1043451;27;101353;-55
2021/09/19 16:56:14;;;;;;;10.38;2.13;;;;;;;;;;1044981;27;100076;-54
2021/09/19 16:56:45;;;;;;;5.88;1.80;;;;;;;;;;1043842;27;100397;-55
2021/09/19 16:57:16;;;;;;;9.85;2.80;;;;;;;;;;1044977;27;100285;-54
2021/09/19 16:57:47;;;;;;;7.13;1.85;;;;;;;;;;1043916;27;100804;-50
2021/09/19 16:58:18;;;;;;;9.35;1.85;;;;;;;;;;1044953;27;99937;-58
2021/09/19 16:58:49;;;;;;;6.07;1.83;;;;;;;;;;1043183;27;100457;-57
2021/09/19 16:59:20;;;;;;;9.75;2.05;;;;;;;;;;1044622;27;100207;-58
2021/09/19 16:59:51;;;;;;;7.43;2.28;;;;;;;;;;1043454;27;100504;-59
2021/09/19 17:00:22;;;;;;;7.43;2.05;;;;;;;;;;1044956;27;99874;-55
2021/09/19 17:00:53;;;;;;;6.63;1.83;;;;;;;;;;1043858;27;100466;-56
2021/09/19 17:01:24;;;;;;;5.68;1.50;;;;;;;;;;1045063;27;101060;-56
2021/09/19 17:01:56;;;;;;;7.03;2.00;;;;;;;;;;1043828;27;100800;-60
2021/09/19 17:02:27;;;;;;;9.65;2.42;;;;;;;;;;1045219;27;99915;-60
2021/09/19 17:02:58;;;;;;;5.60;1.70;;;;;;;;;;1043539;27;101836;-60
2021/09/19 17:03:29;;;;;;;5.68;1.90;;;;;;;;;;1044708;27;100160;-59
2021/09/19 17:04:01;;;;;;;10.70;2.13;;;;;;;;;;1043556;27;101527;-59
2021/09/19 17:04:32;;;;;;;7.57;1.65;;;;;;;;;;1044852;27;100025;-59
2021/09/19 17:05:04;;;;;;;5.82;1.77;;;;;;;;;;1043756;27;100467;-59
2021/09/19 17:05:35;;;;;;;6.93;1.88;;;;;;;;;;1044652;27;100168;-58
2021/09/19 17:06:06;;;;;;;8.98;2.20;;;;;;;;;;1043847;27;100600;-59
2021/09/19 17:06:37;;;;;;;7.57;2.15;;;;;;;;;;1045024;27;99878;-60
2021/09/19 17:07:08;;;;;;;7.35;2.13;;;;;;;;;;1043915;27;100497;-59
2021/09/19 17:07:39;;;;;;;8.32;2.03;;;;;;;;;;1044936;27;100129;-62
2021/09/19 17:08:14;;;;;;;10.35;1.98;;;;;;;;;;1043943;27;100455;-61
2021/09/19 17:08:45;;;;;;;10.05;2.10;;;;;;;;;;1044894;27;100001;-59
2021/09/19 17:09:16;;;;;;;7.68;2.83;;;;;;;;;;1043973;27;100206;-60
2021/09/19 17:09:47;;;;;;;5.93;1.80;;;;;;;;;;1044513;27;100153;-60
2021/09/19 17:10:21;;;;;;;9.50;1.90;;;;;;;;;;1043334;27;100543;-60
2021/09/19 17:10:52;;;;;;;7.47;1.92;;;;;;;;;;1044598;27;99847;-60
2021/09/19 17:11:23;;;;;;;6.32;2.05;;;;;;;;;;1043564;27;100426;-59
2021/09/19 17:11:54;;;;;;;7.90;1.70;;;;;;;;;;1044720;27;99978;-60
2021/09/19 17:12:25;;;;;;;7.20;1.73;;;;;;;;;;1043165;27;102190;-61
2021/09/19 17:12:57;;;;;;;8.63;2.00;;;;;;;;;;1044876;27;100098;-59
2021/09/19 17:13:28;;;;;;;7.55;2.30;;;;;;;;;;1043226;27;100790;-60
2021/09/19 17:13:59;;;;;;;9.20;2.05;;;;;;;;;;1044945;27;100017;-59
2021/09/19 17:14:30;;;;;;;7.35;2.00;;;;;;;;;;1043626;27;100478;-59
2021/09/19 17:15:01;;;;;;;14.25;2.60;;;;;;;;;;1044735;27;100108;-59
2021/09/19 17:15:33;;;;;;;8.15;1.52;;;;;;;;;;1043668;27;100394;-62
2021/09/19 17:16:05;;;;;;;11.25;2.25;;;;;;;;;;1045115;27;99901;-62
2021/09/19 17:16:38;;;;;;;4.50;1.55;;;;;;;;;;1043600;27;100802;-59
2021/09/19 17:17:09;;;;;;;4.82;1.55;;;;;;;;;;1044929;27;99840;-58
2021/09/19 17:17:40;;;;;;;6.88;1.85;;;;;;;;;;1043363;27;100464;-57
2021/09/19 17:18:11;;;;;;;7.75;1.90;;;;;;;;;;1040223;28;99998;-56
2021/09/19 17:18:42;;;;;;;6.82;1.83;;;;;;;;;;1039302;27;100389;-59
2021/09/19 17:19:14;;;;;;;8.90;2.15;;;;;;;;;;1045022;27;100095;-59
2021/09/19 17:19:45;;;;;;;5.90;1.80;;;;;;;;;;1043198;27;100437;-58
2021/09/19 17:20:18;;;;;;;7.05;1.80;;;;;;;;;;1053215;27;99973;-58
2021/09/19 17:20:49;;;;;;;3.97;1.73;;;;;;;;;;1051728;27;100730;-57
2021/09/19 17:21:20;;;;;;;9.18;1.60;;;;;;;;;;1053584;27;99889;-57
2021/09/19 17:21:54;;;;;;;8.95;1.77;;;;;;;;;;1050256;27;101694;-58
2021/09/19 17:22:25;;;;;;;9.50;2.13;;;;;;;;;;1045175;27;99977;-57
2021/09/19 17:22:56;;;;;;;7.15;1.85;;;;;;;;;;1043464;27;101786;-57
2021/09/19 17:23:28;;;;;;;6.38;1.83;;;;;;;;;;1045323;27;100015;-58
2021/09/19 17:23:59;;;;;;;5.75;2.17;;;;;;;;;;1043601;27;100410;-59
2021/09/19 17:24:32;;;;;;;5.50;1.80;;;;;;;;;;1044859;27;99903;-59
2021/09/19 17:25:05;;;;;;;6.15;1.73;;;;;;;;;;1043376;27;100395;-59
2021/09/19 17:25:36;;;;;;;7.38;2.10;;;;;;;;;;1045227;27;99893;-60
2021/09/19 17:26:07;;;;;;;7.53;2.00;;;;;;;;;;1043677;27;100409;-53
2021/09/19 17:26:38;;;;;;;10.10;1.73;;;;;;;;;;1053346;27;99870;-53
2021/09/19 17:27:09;;;;;;;6.35;1.73;;;;;;;;;;1047312;27;100653;-51
2021/09/19 17:27:41;;;;;;;3.65;1.50;;;;;;;;;;1049092;27;99998;-50
2021/09/19 17:28:12;;;;;;;4.57;1.67;;;;;;;;;;1046633;27;102277;-56
2021/09/19 17:28:43;;;;;;;8.07;1.90;;;;;;;;;;1044576;27;99924;-53
2021/09/19 17:29:14;;;;;;;5.78;1.73;;;;;;;;;;1043374;27;100257;-49
2021/09/19 17:29:45;;;;;;;6.95;1.85;;;;;;;;;;1044860;27;99886;-57
2021/09/19 17:30:16;;;;;;;9.13;1.92;;;;;;;;;;1043501;27;100912;-53
2021/09/19 17:30:47;;;;;;;5.60;1.90;;;;;;;;;;1044699;27;99882;-54
2021/09/19 17:31:18;;;;;;;5.05;1.85;;;;;;;;;;1043487;27;100708;-53
2021/09/19 17:31:50;;;;;;;6.30;1.55;;;;;;;;;;1044946;27;99738;-48
2021/09/19 17:32:21;;;;;;;5.30;1.80;;;;;;;;;;1043554;27;101763;-50
2021/09/19 17:32:52;;;;;;;6.80;1.77;;;;;;;;;;1044991;27;99880;-48
2021/09/19 17:33:23;;;;;;;7.90;1.63;;;;;;;;;;1043468;27;101338;-48
2021/09/19 17:33:54;;;;;;;6.40;1.70;;;;;;;;;;1044953;27;99937;-50
2021/09/19 17:34:26;;;;;;;6.80;1.80;;;;;;;;;;1043826;27;101346;-47
2021/09/19 17:34:58;;;;;;;5.50;1.70;;;;;;;;;;1044408;27;99796;-59
2021/09/19 17:35:29;;;;;;;8.70;1.45;;;;;;;;;;1043146;27;101492;-58
2021/09/19 17:36:00;;;;;;;7.30;1.75;;;;;;;;;;1044554;27;99950;-58
2021/09/19 17:36:31;;;;;;;7.95;2.28;;;;;;;;;;1043286;27;100271;-58
2021/09/19 17:37:03;;;;;;;6.05;1.52;;;;;;;;;;1044727;27;99854;-58
2021/09/19 17:37:34;;;;;;;6.60;1.65;;;;;;;;;;1043582;27;100304;-58
2021/09/19 17:38:05;;;;;;;6.65;1.80;;;;;;;;;;1045014;27;99836;-58
2021/09/19 17:38:37;;;;;;;10.27;1.92;;;;;;;;;;1043787;27;100351;-58
2021/09/19 17:39:10;;;;;;;9.00;2.00;;;;;;;;;;1045063;27;99859;-58
2021/09/19 17:39:42;;;;;;;7.50;1.92;;;;;;;;;;1043552;27;100468;-58
2021/09/19 17:40:13;;;;;;;5.38;1.85;;;;;;;;;;1044846;27;99843;-57
2021/09/19 17:40:44;;;;;;;7.13;1.73;;;;;;;;;;1043462;27;101449;-58
2021/09/19 17:41:15;;;;;;;7.78;1.80;;;;;;;;;;1044824;27;99897;-57
2021/09/19 17:41:46;;;;;;;8.70;2.00;;;;;;;;;;1043758;27;100431;-58
2021/09/19 17:42:17;;;;;;;5.28;1.80;;;;;;;;;;1043894;27;99874;-58
2021/09/19 17:42:48;;;;;;;8.25;1.88;;;;;;;;;;1038614;27;101051;-58
2021/09/19 17:43:20;;;;;;;6.13;1.60;;;;;;;;;;1042184;27;100525;-58
2021/09/19 17:43:51;;;;;;;6.50;1.80;;;;;;;;;;1043758;27;100778;-58
2021/09/19 17:44:22;;;;;;;6.70;1.70;;;;;;;;;;1044751;27;99898;-58
2021/09/19 17:44:53;;;;;;;7.43;1.55;;;;;;;;;;1043238;27;100466;-57
2021/09/19 17:45:24;;;;;;;7.28;1.75;;;;;;;;;;1044352;27;100154;-56
2021/09/19 17:45:55;;;;;;;10.48;1.63;;;;;;;;;;1043399;27;100500;-58
2021/09/19 17:46:26;;;;;;;4.85;1.65;;;;;;;;;;1044482;27;100180;-58
2021/09/19 17:46:57;;;;;;;6.38;1.88;;;;;;;;;;1043484;27;100702;-58
2021/09/19 17:47:28;;;;;;;7.20;1.77;;;;;;;;;;1044786;27;100020;-58
2021/09/19 17:48:00;;;;;;;4.75;1.52;;;;;;;;;;1043355;27;101612;-58
2021/09/19 17:48:34;;;;;;;8.18;1.63;;;;;;;;;;1044105;27;100197;-58
2021/09/19 17:49:06;;;;;;;5.22;1.55;;;;;;;;;;1043247;27;100562;-58
2021/09/19 17:49:37;;;;;;;5.68;1.67;;;;;;;;;;1044706;27;99894;-61
2021/09/19 17:50:09;;;;;;;9.52;1.67;;;;;;;;;;1043060;27;102485;-55
2021/09/19 17:50:41;;;;;;;6.70;1.88;;;;;;;;;;1044050;27;99904;-55
2021/09/19 17:51:12;;;;;;;8.35;1.60;;;;;;;;;;1042789;27;100844;-53
2021/09/19 17:51:46;;;;;;;4.75;1.58;;;;;;;;;;1044413;27;100002;-56
2021/09/19 17:52:17;;;;;;;6.82;1.80;;;;;;;;;;1043428;27;101786;-56
2021/09/19 17:52:48;;;;;;;6.03;1.75;;;;;;;;;;1044493;27;99955;-57
2021/09/19 17:53:19;;;;;;;4.30;1.60;;;;;;;;;;1043014;27;101288;-56
2021/09/19 17:53:52;;;;;;;5.43;1.95;;;;;;;;;;1048565;27;99933;-54
2021/09/19 17:54:23;;;;;;;5.05;1.45;;;;;;;;;;1044043;27;100551;-57
2021/09/19 17:54:54;;;;;;;4.78;1.42;;;;;;;;;;1048532;27;99905;-55
2021/09/19 17:55:25;;;;;;;3.47;1.65;;;;;;;;;;1046240;27;101456;-55
2021/09/19 17:55:57;;;;;;;8.10;1.90;;;;;;;;;;1044596;27;99931;-55
2021/09/19 17:56:29;;;;;;;3.80;1.52;;;;;;;;;;1043184;27;100385;-52
2021/09/19 17:57:00;;;;;;;5.03;1.60;;;;;;;;;;1044626;27;99213;-57
2021/09/19 17:57:31;;;;;;;5.93;2.20;;;;;;;;;;1047189;27;100565;-58
2021/09/19 17:58:02;;;;;;;6.43;2.28;;;;;;;;;;1048576;27;99956;-57
2021/09/19 17:58:33;;;;;;;7.00;2.17;;;;;;;;;;1042836;27;102258;-56
2021/09/19 17:59:05;;;;;;;7.55;2.38;;;;;;;;;;1044357;27;99267;-55
2021/09/19 17:59:36;;;;;;;7.63;2.20;;;;;;;;;;1042808;27;100748;-57
2021/09/19 18:00:08;;;;;;;7.47;2.25;;;;;;;;;;1042564;27;99915;-57
2021/09/19 18:00:39;;;;;;;9.05;1.92;;;;;;;;;;1040069;27;101706;-58
2021/09/19 18:01:10;;;;;;;6.68;1.92;;;;;;;;;;1041844;27;99984;-57
2021/09/19 18:01:42;;;;;;;6.35;1.83;;;;;;;;;;1040346;28;100491;-55
2021/09/19 18:02:13;;;;;;;6.47;2.13;;;;;;;;;;1041729;28;99862;-57
2021/09/19 18:02:44;;;;;;;5.05;1.83;;;;;;;;;;1040645;28;100527;-58
2021/09/19 18:03:15;;;;;;;6.00;1.77;;;;;;;;;;1041857;28;99314;-56
2021/09/19 18:03:46;;;;;;;6.40;1.88;;;;;;;;;;1040423;28;100466;-57
2021/09/19 18:04:17;;;;;;;5.65;2.10;;;;;;;;;;1037144;28;99907;-58
2021/09/19 18:04:48;;;;;;;3.25;1.58;;;;;;;;;;1031683;28;100616;-67
2021/09/19 18:05:19;;;;;;;8.07;1.90;;;;;;;;;;1033205;28;99932;-58
2021/09/19 18:05:54;;;;;;;9.48;2.35;;;;;;;;;;1032404;28;100494;-58
2021/09/19 18:06:25;;;;;;;6.93;2.33;;;;;;;;;;1041548;28;100050;-58
2021/09/19 18:06:56;;;;;;;8.57;2.55;;;;;;;;;;1040595;28;100574;-58
2021/09/19 18:07:27;;;;;;;11.15;2.67;;;;;;;;;;1042029;27;99786;-58
2021/09/19 18:07:58;;;;;;;8.95;2.20;;;;;;;;;;1040553;27;100424;-57
